createdAt,value
2019-02-18T00:00:21.061Z,79.40
2019-02-18T00:02:49.842Z,79.70
2019-02-18T00:05:18.627Z,79.80
2019-02-18T00:07:47.385Z,79.90
2019-02-18T00:10:16.155Z,80.30
2019-02-18T00:12:44.909Z,79.70
2019-02-18T00:15:13.705Z,79.50
2019-02-18T00:17:42.475Z,79.80
2019-02-18T00:20:11.263Z,79.60
2019-02-18T00:22:40.033Z,79.50
2019-02-18T00:25:08.813Z,80.00
2019-02-18T00:27:37.562Z,80.00
2019-02-18T00:30:08.187Z,79.90
2019-02-18T00:32:36.990Z,80.10
2019-02-18T00:35:05.761Z,80.00
2019-02-18T00:37:34.534Z,79.90
2019-02-18T00:40:03.453Z,79.90
2019-02-18T00:42:32.240Z,80.00
2019-02-18T00:45:00.994Z,80.60
2019-02-18T00:47:29.777Z,79.80
2019-02-18T00:49:58.533Z,80.00
2019-02-18T00:52:27.350Z,79.80
2019-02-18T00:54:56.111Z,79.80
2019-02-18T00:57:24.900Z,79.60
2019-02-18T00:59:53.666Z,79.60
2019-02-18T01:02:22.537Z,79.80
2019-02-18T01:04:51.280Z,79.80
2019-02-18T01:07:20.066Z,79.70
2019-02-18T01:09:48.839Z,79.80
2019-02-18T01:12:17.621Z,80.20
2019-02-18T01:14:46.386Z,79.80
2019-02-18T01:17:15.163Z,79.90
2019-02-18T01:19:43.962Z,80.00
2019-02-18T01:22:12.760Z,79.70
2019-02-18T01:24:41.513Z,79.90
2019-02-18T01:27:10.269Z,80.00
2019-02-18T01:29:39.123Z,80.10
2019-02-18T01:32:07.878Z,79.90
2019-02-18T01:34:36.690Z,79.90
2019-02-18T01:37:05.498Z,80.10
2019-02-18T01:39:34.291Z,79.80
2019-02-18T01:42:03.047Z,80.00
2019-02-18T01:44:31.795Z,80.10
2019-02-18T01:47:00.536Z,80.10
2019-02-18T01:49:29.304Z,80.00
2019-02-18T01:51:58.044Z,79.80
2019-02-18T01:54:26.818Z,79.90
2019-02-18T01:56:55.568Z,80.20
2019-02-18T01:59:24.381Z,80.50
2019-02-18T02:01:53.102Z,80.80
2019-02-18T02:04:21.879Z,80.70
2019-02-18T02:06:50.622Z,81.00
2019-02-18T02:09:19.407Z,81.30
2019-02-18T02:11:48.156Z,81.20
2019-02-18T02:14:16.929Z,81.30
2019-02-18T02:16:45.693Z,81.20
2019-02-18T02:19:14.464Z,81.10
2019-02-18T02:21:43.201Z,81.30
2019-02-18T02:24:11.981Z,81.30
2019-02-18T02:26:40.731Z,81.30
2019-02-18T02:29:09.501Z,81.50
2019-02-18T02:31:38.347Z,81.60
2019-02-18T02:34:07.115Z,82.00
2019-02-18T02:36:35.892Z,82.10
2019-02-18T02:39:05.310Z,82.10
2019-02-18T02:41:34.093Z,81.90
2019-02-18T02:44:02.836Z,81.90
2019-02-18T02:46:31.606Z,82.20
2019-02-18T02:49:00.356Z,82.30
2019-02-18T02:51:29.193Z,82.50
2019-02-18T02:53:57.951Z,82.70
2019-02-18T02:56:26.734Z,82.50
2019-02-18T02:58:55.491Z,82.60
2019-02-18T03:01:24.280Z,82.50
2019-02-18T03:03:53.020Z,82.50
2019-02-18T03:06:21.798Z,82.40
2019-02-18T03:08:50.565Z,82.40
2019-02-18T03:11:19.337Z,82.70
2019-02-18T03:13:48.093Z,82.70
2019-02-18T03:16:16.945Z,82.70
2019-02-18T03:18:45.694Z,82.90
2019-02-18T03:21:14.479Z,82.80
2019-02-18T03:23:43.234Z,82.80
2019-02-18T03:26:11.966Z,82.70
2019-02-18T03:28:52.231Z,82.80
2019-02-18T03:31:24.144Z,82.70
2019-02-18T03:34:01.971Z,82.60
2019-02-18T03:36:30.831Z,82.60
2019-02-18T03:38:59.634Z,82.80
2019-02-18T03:41:28.434Z,82.80
2019-02-18T03:43:57.267Z,82.80
2019-02-18T03:46:26.029Z,82.80
2019-02-18T03:48:54.830Z,82.60
2019-02-18T03:51:23.577Z,82.70
2019-02-18T03:53:52.338Z,82.60
2019-02-18T03:56:21.097Z,82.80
2019-02-18T03:58:49.875Z,82.60
2019-02-18T04:01:18.635Z,82.80
2019-02-18T04:03:47.406Z,82.80
2019-02-18T04:06:16.149Z,83.00
2019-02-18T04:08:44.941Z,83.20
2019-02-18T04:11:13.695Z,83.30
2019-02-18T04:13:42.528Z,83.50
2019-02-18T04:16:11.269Z,83.40
2019-02-18T04:18:40.034Z,83.40
2019-02-18T04:21:08.802Z,83.50
2019-02-18T04:23:37.567Z,83.40
2019-02-18T04:26:06.668Z,83.60
2019-02-18T04:28:35.444Z,83.60
2019-02-18T04:31:04.222Z,83.50
2019-02-18T04:33:32.962Z,83.40
2019-02-18T04:36:01.745Z,83.20
2019-02-18T04:38:30.527Z,83.40
2019-02-18T04:40:59.302Z,83.40
2019-02-18T04:43:28.067Z,83.60
2019-02-18T04:45:56.877Z,83.60
2019-02-18T04:48:25.700Z,83.70
2019-02-18T04:50:54.463Z,83.80
2019-02-18T04:53:23.214Z,83.80
2019-02-18T04:55:51.986Z,83.80
2019-02-18T04:58:20.765Z,83.80
2019-02-18T05:00:49.599Z,83.90
2019-02-18T05:03:18.370Z,83.80
2019-02-18T05:05:47.139Z,83.60
2019-02-18T05:08:15.964Z,83.70
2019-02-18T05:10:44.754Z,83.70
2019-02-18T05:13:13.503Z,83.80
2019-02-18T05:15:42.302Z,84.00
2019-02-18T05:18:11.068Z,84.00
2019-02-18T05:20:39.846Z,84.10
2019-02-18T05:23:08.596Z,84.00
2019-02-18T05:25:37.347Z,84.20
2019-02-18T05:28:06.145Z,84.20
2019-02-18T05:30:34.885Z,84.30
2019-02-18T05:33:03.666Z,84.40
2019-02-18T05:35:32.435Z,85.20
2019-02-18T05:38:01.232Z,84.70
2019-02-18T05:40:29.966Z,84.80
2019-02-18T05:42:58.735Z,84.90
2019-02-18T05:45:27.554Z,85.10
2019-02-18T05:47:56.422Z,85.20
2019-02-18T05:50:25.188Z,85.20
2019-02-18T05:52:53.968Z,85.30
2019-02-18T05:55:22.716Z,85.50
2019-02-18T05:57:51.485Z,86.20
2019-02-18T06:00:20.232Z,85.60
2019-02-18T06:02:49.018Z,85.80
2019-02-18T06:05:17.786Z,85.90
2019-02-18T06:07:46.558Z,86.00
2019-02-18T06:10:17.134Z,86.10
2019-02-18T06:12:45.771Z,86.10
2019-02-18T06:15:14.584Z,86.20
2019-02-18T06:17:43.419Z,86.20
2019-02-18T06:20:12.178Z,86.10
2019-02-18T06:22:40.923Z,86.00
2019-02-18T06:25:09.713Z,86.10
2019-02-18T06:27:38.466Z,86.20
2019-02-18T06:30:09.895Z,86.00
2019-02-18T06:32:38.639Z,85.90
2019-02-18T06:35:07.480Z,85.80
2019-02-18T06:37:36.224Z,85.70
2019-02-18T06:40:07.552Z,85.80
2019-02-18T06:42:36.372Z,85.90
2019-02-18T06:45:25.803Z,85.70
2019-02-18T06:47:54.590Z,85.80
2019-02-18T06:50:23.386Z,85.80
2019-02-18T06:52:52.196Z,85.70
2019-02-18T06:55:21.061Z,85.80
2019-02-18T06:58:00.399Z,85.90
2019-02-18T07:00:33.605Z,85.90
2019-02-18T07:03:06.874Z,85.40
2019-02-18T07:05:43.171Z,85.20
2019-02-18T07:08:19.692Z,84.90
2019-02-18T07:10:52.832Z,84.40
2019-02-18T07:13:21.573Z,83.40
2019-02-18T07:15:50.348Z,82.70
2019-02-18T07:18:19.096Z,81.60
2019-02-18T07:20:47.942Z,80.50
2019-02-18T07:23:16.701Z,79.50
2019-02-18T07:25:45.478Z,78.50
2019-02-18T07:28:14.231Z,77.50
2019-02-18T07:30:43.034Z,76.50
2019-02-18T07:33:11.866Z,75.60
2019-02-18T07:35:40.654Z,74.40
2019-02-18T07:38:09.410Z,73.60
2019-02-18T07:40:38.198Z,72.40
2019-02-18T07:43:06.975Z,71.30
2019-02-18T07:45:35.772Z,70.10
2019-02-18T07:48:04.568Z,69.20
2019-02-18T07:50:33.361Z,67.80
2019-02-18T07:53:02.264Z,66.30
2019-02-18T07:55:31.021Z,64.60
2019-02-18T07:57:59.811Z,62.90
2019-02-18T08:00:28.574Z,61.00
2019-02-18T08:02:57.381Z,59.40
2019-02-18T08:05:26.643Z,57.60
2019-02-18T08:07:55.486Z,55.90
2019-02-18T08:10:24.256Z,54.00
2019-02-18T08:12:53.027Z,52.40
2019-02-18T08:15:21.786Z,50.90
2019-02-18T08:17:50.587Z,48.80
2019-02-18T08:20:19.345Z,47.80
2019-02-18T08:22:48.142Z,45.70
2019-02-18T08:25:16.915Z,44.70
2019-02-18T08:27:45.687Z,43.60
2019-02-18T08:30:14.919Z,42.60
2019-02-18T08:32:43.714Z,41.00
2019-02-18T08:35:12.453Z,39.70
2019-02-18T08:37:41.282Z,38.40
2019-02-18T08:40:10.114Z,36.20
2019-02-18T08:42:38.913Z,36.00
2019-02-18T08:45:10.757Z,35.80
2019-02-18T08:47:39.545Z,35.20
2019-02-18T08:50:12.192Z,33.80
2019-02-18T08:52:40.956Z,33.40
2019-02-18T08:55:13.882Z,32.60
2019-02-18T08:57:42.641Z,32.00
2019-02-18T09:00:16.776Z,30.90
2019-02-18T09:02:45.512Z,30.50
2019-02-18T09:05:14.406Z,30.10
2019-02-18T09:07:43.301Z,30.00
2019-02-18T09:10:13.774Z,29.40
2019-02-18T09:12:42.539Z,29.00
2019-02-18T09:15:13.949Z,28.60
2019-02-18T09:17:41.938Z,28.50
2019-02-18T09:20:10.720Z,27.70
2019-02-18T09:22:47.181Z,27.30
2019-02-18T09:25:20.662Z,26.20
2019-02-18T09:27:51.073Z,25.50
2019-02-18T09:30:21.554Z,24.90
2019-02-18T09:32:50.287Z,25.00
2019-02-18T09:35:19.074Z,24.20
2019-02-18T09:37:47.827Z,23.40
2019-02-18T09:40:16.764Z,23.30
2019-02-18T09:42:45.514Z,22.60
2019-02-18T09:45:15.034Z,23.20
2019-02-18T09:47:43.802Z,23.00
2019-02-18T09:50:12.571Z,22.80
2019-02-18T09:52:41.334Z,22.30
2019-02-18T09:55:10.547Z,21.30
2019-02-18T09:57:39.302Z,21.10
2019-02-18T10:00:10.481Z,20.70
2019-02-18T10:02:39.255Z,20.40
2019-02-18T10:05:08.508Z,20.40
2019-02-18T10:07:37.264Z,20.50
2019-02-18T10:10:08.649Z,20.50
2019-02-18T10:12:37.489Z,20.00
2019-02-18T10:15:08.901Z,19.80
2019-02-18T10:17:37.682Z,19.70
2019-02-18T10:20:11.272Z,19.70
2019-02-18T10:22:40.071Z,19.20
2019-02-18T10:25:11.771Z,18.80
2019-02-18T10:27:40.628Z,18.80
2019-02-18T10:30:10.683Z,19.00
2019-02-18T10:32:39.501Z,19.40
2019-02-18T10:35:12.448Z,18.20
2019-02-18T10:37:41.251Z,18.20
2019-02-18T10:40:10.738Z,17.60
2019-02-18T10:42:39.527Z,17.40
2019-02-18T10:45:14.359Z,17.60
2019-02-18T10:47:43.147Z,17.10
2019-02-18T10:50:12.223Z,17.00
2019-02-18T10:52:41.006Z,16.90
2019-02-18T10:55:10.767Z,16.20
2019-02-18T10:57:39.850Z,16.40
2019-02-18T11:00:11.557Z,16.10
2019-02-18T11:02:40.341Z,15.90
2019-02-18T11:05:09.161Z,15.80
2019-02-18T11:07:37.913Z,16.40
2019-02-18T11:10:14.735Z,16.40
2019-02-18T11:12:43.492Z,16.40
2019-02-18T11:15:15.507Z,15.90
2019-02-18T11:17:44.652Z,14.70
2019-02-18T11:20:13.949Z,14.30
2019-02-18T11:22:42.796Z,14.50
2019-02-18T11:25:15.306Z,14.50
2019-02-18T11:27:44.040Z,14.70
2019-02-18T11:30:18.977Z,15.00
2019-02-18T11:32:47.726Z,14.90
2019-02-18T11:35:16.538Z,14.80
2019-02-18T11:37:45.367Z,14.90
2019-02-18T11:40:15.486Z,14.80
2019-02-18T11:42:44.255Z,14.80
2019-02-18T11:45:14.519Z,14.40
2019-02-18T11:47:43.284Z,14.20
2019-02-18T11:50:13.591Z,14.30
2019-02-18T11:52:42.403Z,14.50
2019-02-18T11:55:13.251Z,14.70
2019-02-18T11:57:42.390Z,14.30
2019-02-18T12:00:17.518Z,14.80
2019-02-18T12:02:46.271Z,14.20
2019-02-18T12:05:15.113Z,13.60
2019-02-18T12:07:43.869Z,14.00
2019-02-18T12:10:13.555Z,13.80
2019-02-18T12:12:42.780Z,13.60
2019-02-18T12:15:15.654Z,13.50
2019-02-18T12:17:44.483Z,13.30
2019-02-18T12:20:13.954Z,13.30
2019-02-18T12:22:42.811Z,13.10
2019-02-18T12:25:12.667Z,13.00
2019-02-18T12:27:41.813Z,13.10
2019-02-18T12:30:15.426Z,12.70
2019-02-18T12:32:44.249Z,12.40
2019-02-18T12:35:12.997Z,12.70
2019-02-18T12:37:41.833Z,12.70
2019-02-18T12:40:12.185Z,12.90
2019-02-18T12:42:42.435Z,13.30
2019-02-18T12:45:11.940Z,13.20
2019-02-18T12:47:40.787Z,13.30
2019-02-18T12:50:10.761Z,12.80
2019-02-18T12:52:39.636Z,12.40
2019-02-18T12:55:09.800Z,12.90
2019-02-18T12:57:39.075Z,12.30
2019-02-18T13:00:13.497Z,12.70
2019-02-18T13:02:44.646Z,12.70
2019-02-18T13:05:13.446Z,12.60
2019-02-18T13:07:42.294Z,12.50
2019-02-18T13:10:11.575Z,12.70
2019-02-18T13:12:40.819Z,13.10
2019-02-18T13:15:17.393Z,12.60
2019-02-18T13:17:46.252Z,12.70
2019-02-18T13:20:15.076Z,12.80
2019-02-18T13:22:43.936Z,12.90
2019-02-18T13:25:12.792Z,12.70
2019-02-18T13:27:41.635Z,13.20
2019-02-18T13:30:15.884Z,13.10
2019-02-18T13:32:44.727Z,13.00
2019-02-18T13:35:13.646Z,12.70
2019-02-18T13:37:42.518Z,12.50
2019-02-18T13:40:13.018Z,12.90
2019-02-18T13:42:42.138Z,12.80
2019-02-18T13:45:10.979Z,13.10
2019-02-18T13:47:39.827Z,13.10
2019-02-18T13:50:11.507Z,12.50
2019-02-18T13:52:40.271Z,12.70
2019-02-18T13:55:11.078Z,12.90
2019-02-18T13:57:40.222Z,12.90
2019-02-18T14:00:16.876Z,13.20
2019-02-18T14:02:45.866Z,13.50
2019-02-18T14:05:14.662Z,13.40
2019-02-18T14:07:43.414Z,13.00
2019-02-18T14:10:12.315Z,12.70
2019-02-18T14:12:41.066Z,13.00
2019-02-18T14:15:11.396Z,13.40
2019-02-18T14:17:40.229Z,13.50
2019-02-18T14:20:11.730Z,13.30
2019-02-18T14:22:40.573Z,13.30
2019-02-18T14:25:09.894Z,13.60
2019-02-18T14:27:38.694Z,13.90
2019-02-18T14:30:13.609Z,14.10
2019-02-18T14:32:42.373Z,13.90
2019-02-18T14:35:11.168Z,14.10
2019-02-18T14:37:39.937Z,13.80
2019-02-18T14:40:10.435Z,14.00
2019-02-18T14:42:39.218Z,14.00
2019-02-18T14:45:08.891Z,13.60
2019-02-18T14:47:37.822Z,13.60
2019-02-18T14:50:08.675Z,13.90
2019-02-18T14:52:37.543Z,14.20
2019-02-18T14:55:08.126Z,14.20
2019-02-18T14:57:36.975Z,14.40
2019-02-18T15:00:19.016Z,14.50
2019-02-18T15:02:47.888Z,14.40
2019-02-18T15:05:17.798Z,14.60
2019-02-18T15:07:46.792Z,15.00
2019-02-18T15:10:15.941Z,15.30
2019-02-18T15:12:44.820Z,15.80
2019-02-18T15:15:13.666Z,16.20
2019-02-18T15:17:42.705Z,16.30
2019-02-18T15:20:11.699Z,16.40
2019-02-18T15:22:40.792Z,17.10
2019-02-18T15:25:10.604Z,17.30
2019-02-18T15:27:39.404Z,17.50
2019-02-18T15:30:15.496Z,18.20
2019-02-18T15:32:44.285Z,19.20
2019-02-18T15:35:14.057Z,20.60
2019-02-18T15:37:42.922Z,21.50
2019-02-18T15:40:13.390Z,22.20
2019-02-18T15:42:42.805Z,22.60
2019-02-18T15:45:11.702Z,23.30
2019-02-18T15:47:40.856Z,24.20
2019-02-18T15:50:11.334Z,25.50
2019-02-18T15:52:40.160Z,27.00
2019-02-18T15:55:09.403Z,28.10
2019-02-18T15:57:38.204Z,28.80
2019-02-18T16:00:15.809Z,29.20
2019-02-18T16:02:44.670Z,29.50
2019-02-18T16:05:13.478Z,30.40
2019-02-18T16:07:42.285Z,31.50
2019-02-18T16:10:11.067Z,32.60
2019-02-18T16:12:39.866Z,33.70
2019-02-18T16:15:10.463Z,34.70
2019-02-18T16:17:39.227Z,35.30
2019-02-18T16:20:13.278Z,36.10
2019-02-18T16:22:42.062Z,36.90
2019-02-18T16:25:13.861Z,37.60
2019-02-18T16:27:42.652Z,38.10
2019-02-18T16:30:13.440Z,38.40
2019-02-18T16:32:43.596Z,38.70
2019-02-18T16:35:13.200Z,39.30
2019-02-18T16:37:42.448Z,40.00
2019-02-18T16:40:19.090Z,40.40
2019-02-18T16:42:47.860Z,40.70
2019-02-18T16:45:18.359Z,41.20
2019-02-18T16:47:47.222Z,41.50
2019-02-18T16:50:16.258Z,41.90
2019-02-18T16:52:45.132Z,42.60
2019-02-18T16:55:14.968Z,42.60
2019-02-18T16:57:43.892Z,42.90
2019-02-18T17:00:19.113Z,43.30
2019-02-18T17:02:51.017Z,44.50
2019-02-18T17:05:20.878Z,43.70
2019-02-18T17:07:50.270Z,44.10
2019-02-18T17:10:19.095Z,44.60
2019-02-18T17:12:48.416Z,44.80
2019-02-18T17:15:17.295Z,45.30
2019-02-18T17:17:46.203Z,45.50
2019-02-18T17:20:15.031Z,45.90
2019-02-18T17:22:44.017Z,45.90
2019-02-18T17:25:13.554Z,46.30
2019-02-18T17:27:42.759Z,46.50
2019-02-18T17:30:14.139Z,46.80
2019-02-18T17:32:43.115Z,47.10
2019-02-18T17:35:13.023Z,47.40
2019-02-18T17:37:41.910Z,48.10
2019-02-18T17:40:13.389Z,48.30
2019-02-18T17:42:42.595Z,48.60
2019-02-18T17:45:13.394Z,49.10
2019-02-18T17:47:42.284Z,49.30
2019-02-18T17:50:15.929Z,49.80
2019-02-18T17:52:44.980Z,49.80
2019-02-18T17:55:18.073Z,50.60
2019-02-18T17:57:46.948Z,50.30
2019-02-18T18:00:24.502Z,50.00
2019-02-18T18:02:53.360Z,49.90
2019-02-18T18:05:22.219Z,49.80
2019-02-18T18:07:51.030Z,49.60
2019-02-18T18:10:20.257Z,49.70
2019-02-18T18:12:49.042Z,49.70
2019-02-18T18:15:19.442Z,49.80
2019-02-18T18:17:48.301Z,49.90
2019-02-18T18:20:17.148Z,50.20
2019-02-18T18:22:46.147Z,50.40
2019-02-18T18:25:15.457Z,50.70
2019-02-18T18:27:44.340Z,51.10
2019-02-18T18:30:20.391Z,51.50
2019-02-18T18:32:49.444Z,51.90
2019-02-18T18:35:18.227Z,52.10
2019-02-18T18:37:47.027Z,52.50
2019-02-18T18:40:17.688Z,52.80
2019-02-18T18:42:46.508Z,53.30
2019-02-18T18:45:16.841Z,53.80
2019-02-18T18:47:46.965Z,54.20
2019-02-18T18:50:20.387Z,54.70
2019-02-18T18:52:49.201Z,55.30
2019-02-18T18:55:18.043Z,55.70
2019-02-18T18:57:46.893Z,56.10
2019-02-18T19:00:24.647Z,56.30
2019-02-18T19:02:55.889Z,56.70
2019-02-18T19:05:24.754Z,56.70
2019-02-18T19:07:53.563Z,56.90
2019-02-18T19:10:23.505Z,57.20
2019-02-18T19:12:52.821Z,57.50
2019-02-18T19:15:21.833Z,57.70
2019-02-18T19:17:51.061Z,58.80
2019-02-18T19:20:19.932Z,58.40
2019-02-18T19:22:48.744Z,58.50
2019-02-18T19:25:23.327Z,58.80
2019-02-18T19:27:52.161Z,59.20
2019-02-18T19:30:29.540Z,59.20
2019-02-18T19:32:58.340Z,59.50
2019-02-18T19:35:27.497Z,60.30
2019-02-18T19:37:56.459Z,61.30
2019-02-18T19:40:25.247Z,61.90
2019-02-18T19:42:54.104Z,62.40
2019-02-18T19:45:24.281Z,62.40
2019-02-18T19:47:53.263Z,62.90
2019-02-18T19:50:23.473Z,62.90
2019-02-18T19:52:52.282Z,63.20
2019-02-18T19:55:21.168Z,63.50
2019-02-18T19:57:51.665Z,63.50
2019-02-18T20:00:21.388Z,63.70
2019-02-18T20:02:50.259Z,63.70
2019-02-18T20:05:19.027Z,64.10
2019-02-18T20:07:47.854Z,64.50
2019-02-18T20:10:24.281Z,65.00
2019-02-18T20:12:53.626Z,65.10
2019-02-18T20:15:22.413Z,65.40
2019-02-18T20:17:53.163Z,65.90
2019-02-18T20:20:23.241Z,66.00
2019-02-18T20:22:52.067Z,66.20
2019-02-18T20:25:20.979Z,66.20
2019-02-18T20:27:53.670Z,66.60
2019-02-18T20:30:22.519Z,66.70
2019-02-18T20:32:55.654Z,67.10
2019-02-18T20:35:24.631Z,67.20
2019-02-18T20:37:53.523Z,68.20
2019-02-18T20:40:23.288Z,67.70
2019-02-18T20:42:52.147Z,67.70
2019-02-18T20:45:20.952Z,67.60
2019-02-18T20:47:49.821Z,67.80
2019-02-18T20:50:18.605Z,67.90
2019-02-18T20:52:50.628Z,68.20
2019-02-18T20:55:19.700Z,68.10
2019-02-18T20:57:48.470Z,68.00
2019-02-18T21:00:20.848Z,68.30
2019-02-18T21:02:49.792Z,68.50
2019-02-18T21:05:18.581Z,68.70
2019-02-18T21:07:47.400Z,68.90
2019-02-18T21:10:18.531Z,68.90
2019-02-18T21:12:47.345Z,69.10
2019-02-18T21:15:16.199Z,69.20
2019-02-18T21:17:45.441Z,69.40
2019-02-18T21:20:14.991Z,69.50
2019-02-18T21:22:43.835Z,70.00
2019-02-18T21:25:12.780Z,70.60
2019-02-18T21:27:44.906Z,69.80
2019-02-18T21:30:15.160Z,70.00
2019-02-18T21:32:44.007Z,70.20
2019-02-18T21:35:12.920Z,70.00
2019-02-18T21:37:42.075Z,70.20
2019-02-18T21:40:12.516Z,70.40
2019-02-18T21:42:41.372Z,70.60
2019-02-18T21:45:14.404Z,70.50
2019-02-18T21:47:46.235Z,70.60
2019-02-18T21:50:15.091Z,70.60
2019-02-18T21:52:43.871Z,70.50
2019-02-18T21:55:12.949Z,70.80
2019-02-18T21:57:41.881Z,71.30
2019-02-18T22:00:20.089Z,70.40
2019-02-18T22:02:49.647Z,70.60
2019-02-18T22:05:21.384Z,70.60
2019-02-18T22:07:50.216Z,70.60
2019-02-18T22:10:19.092Z,71.00
2019-02-18T22:12:47.990Z,71.00
2019-02-18T22:15:17.044Z,71.00
2019-02-18T22:17:45.854Z,71.10
2019-02-18T22:20:15.072Z,71.10
2019-02-18T22:22:43.860Z,71.30
2019-02-18T22:25:13.350Z,71.30
2019-02-18T22:27:42.590Z,71.40
2019-02-18T22:30:19.220Z,71.50
2019-02-18T22:32:51.136Z,71.70
2019-02-18T22:35:21.539Z,71.80
2019-02-18T22:37:50.477Z,72.00
2019-02-18T22:40:20.299Z,72.00
2019-02-18T22:42:49.119Z,72.10
2019-02-18T22:45:18.180Z,72.30
2019-02-18T22:47:51.024Z,72.50
2019-02-18T22:50:19.783Z,72.60
2019-02-18T22:52:48.649Z,72.70
2019-02-18T22:55:19.045Z,73.00
2019-02-18T22:57:47.918Z,73.00
2019-02-18T23:00:25.617Z,73.30
2019-02-18T23:02:54.789Z,73.60
2019-02-18T23:05:23.618Z,73.70
2019-02-18T23:07:52.429Z,74.00
2019-02-18T23:10:21.210Z,74.30
2019-02-18T23:12:49.966Z,74.60
2019-02-18T23:15:19.356Z,75.00
2019-02-18T23:17:48.171Z,75.50
2019-02-18T23:20:17.372Z,75.80
2019-02-18T23:22:49.834Z,76.30
2019-02-18T23:25:20.318Z,76.80
2019-02-18T23:27:50.136Z,77.00
2019-02-18T23:30:19.000Z,76.90
2019-02-18T23:32:47.828Z,76.80
2019-02-18T23:35:18.557Z,77.00
2019-02-18T23:37:48.971Z,77.60
2019-02-18T23:40:17.941Z,76.80
2019-02-18T23:42:46.728Z,76.70
2019-02-18T23:45:15.644Z,76.80
2019-02-18T23:47:44.404Z,76.80
2019-02-18T23:50:13.277Z,77.10
2019-02-18T23:52:43.183Z,77.20
2019-02-18T23:55:11.992Z,77.60
2019-02-18T23:57:41.085Z,78.00
